createdAt,value
2023-04-09T00:01:54.010Z,5.30
2023-04-09T00:11:53.951Z,5.40
2023-04-09T00:21:54.022Z,4.90
2023-04-09T00:31:54.129Z,5.05
2023-04-09T00:41:54.101Z,4.40
2023-04-09T00:51:54.122Z,4.30
2023-04-09T01:01:54.220Z,4.00
2023-04-09T01:11:54.131Z,4.30
2023-04-09T01:24:54.111Z,3.60
2023-04-09T01:34:54.123Z,3.50
2023-04-09T01:44:54.116Z,3.20
2023-04-09T01:54:54.129Z,3.60
2023-04-09T02:04:54.233Z,3.30
2023-04-09T02:17:54.288Z,3.05
2023-04-09T02:27:54.263Z,3.10
2023-04-09T02:40:54.259Z,2.70
2023-04-09T02:50:54.315Z,2.50
2023-04-09T03:00:54.276Z,2.80
2023-04-09T03:10:54.301Z,2.10
2023-04-09T03:20:54.292Z,2.00
2023-04-09T03:30:54.334Z,2.30
2023-04-09T03:40:54.338Z,2.10
2023-04-09T03:50:54.309Z,1.90
2023-04-09T04:00:54.313Z,2.00
2023-04-09T04:10:54.334Z,1.80
2023-04-09T04:20:54.340Z,1.70
2023-04-09T04:30:54.346Z,1.60
2023-04-09T04:40:54.401Z,1.50
2023-04-09T04:54:54.423Z,1.60
2023-04-09T05:08:54.599Z,1.40
2023-04-09T05:19:54.486Z,1.30
2023-04-09T05:30:54.488Z,1.10
2023-04-09T05:41:54.514Z,1.40
2023-04-09T05:52:54.508Z,1.40
2023-04-09T06:03:56.213Z,1.00
2023-04-09T06:17:55.222Z,2.30
2023-04-09T06:31:54.623Z,2.90
2023-04-09T06:45:54.660Z,2.90
2023-04-09T06:58:54.759Z,11.90
2023-04-09T07:12:54.760Z,13.00
2023-04-09T07:26:54.775Z,12.70
2023-04-09T07:40:54.762Z,11.30
2023-04-09T07:51:54.781Z,9.10
2023-04-09T08:02:55.086Z,7.90
2023-04-09T08:13:54.790Z,7.10
2023-04-09T08:24:54.816Z,6.00
2023-04-09T08:35:54.860Z,5.70
2023-04-09T08:46:55.105Z,5.40
2023-04-09T08:57:54.899Z,4.60
2023-04-09T09:08:55.046Z,4.30
2023-04-09T09:19:54.962Z,3.90
2023-04-09T09:30:55.013Z,3.85
2023-04-09T09:44:55.044Z,3.75
2023-04-09T09:55:55.076Z,4.60
2023-04-09T10:06:55.063Z,4.05
2023-04-09T10:17:55.046Z,4.00
2023-04-09T10:28:55.071Z,3.30
2023-04-09T10:42:55.134Z,4.20
2023-04-09T10:56:55.195Z,4.40
2023-04-09T11:08:55.278Z,6.70
2023-04-09T11:21:55.290Z,8.60
2023-04-09T11:35:55.312Z,9.20
2023-04-09T11:47:55.348Z,10.40
2023-04-09T12:01:55.351Z,9.60
2023-04-09T12:12:55.333Z,9.30
2023-04-09T12:26:55.365Z,12.85
2023-04-09T12:40:55.434Z,14.60
2023-04-09T12:54:55.467Z,14.40
2023-04-09T13:05:55.479Z,13.60
2023-04-09T13:19:55.481Z,13.00
2023-04-09T13:33:55.533Z,11.40
2023-04-09T13:44:55.524Z,10.95
2023-04-09T13:55:55.555Z,10.60
2023-04-09T14:06:55.519Z,9.65
2023-04-09T14:17:55.597Z,9.20
2023-04-09T14:28:55.796Z,8.60
